createdAt,value
2018-06-10T00:00:18.677Z,11.17
2018-06-10T00:02:48.003Z,10.40
2018-06-10T00:05:16.354Z,13.73
2018-06-10T00:07:44.661Z,10.60
2018-06-10T00:10:13.201Z,11.37
2018-06-10T00:12:41.624Z,12.43
2018-06-10T00:15:10.036Z,10.80
2018-06-10T00:17:38.324Z,10.77
2018-06-10T00:20:06.757Z,9.13
2018-06-10T00:22:36.077Z,12.93
2018-06-10T00:25:04.553Z,21.23
2018-06-10T00:27:33.037Z,19.40
2018-06-10T00:30:02.726Z,11.00
2018-06-10T00:32:31.092Z,13.07
2018-06-10T00:34:59.387Z,12.27
2018-06-10T00:37:27.786Z,12.37
2018-06-10T00:39:56.190Z,11.97
2018-06-10T00:42:24.541Z,18.13
2018-06-10T00:44:52.978Z,11.97
2018-06-10T00:47:21.401Z,14.00
2018-06-10T00:49:50.565Z,11.60
2018-06-10T00:52:22.709Z,11.23
2018-06-10T00:54:52.206Z,13.40
2018-06-10T00:57:20.509Z,12.90
2018-06-10T00:59:48.830Z,13.00
2018-06-10T01:02:17.161Z,13.37
2018-06-10T01:04:45.481Z,12.07
2018-06-10T01:07:14.865Z,15.13
2018-06-10T01:09:43.473Z,13.17
2018-06-10T01:12:12.895Z,15.10
2018-06-10T01:14:41.232Z,12.30
2018-06-10T01:17:09.550Z,13.97
2018-06-10T01:19:37.908Z,13.00
2018-06-10T01:22:06.273Z,12.57
2018-06-10T01:24:34.670Z,13.83
2018-06-10T01:27:03.000Z,13.73
2018-06-10T01:29:31.345Z,14.20
2018-06-10T01:31:59.675Z,14.70
2018-06-10T01:34:29.112Z,16.93
2018-06-10T01:36:57.461Z,15.20
2018-06-10T01:39:25.809Z,17.70
2018-06-10T01:41:56.161Z,16.03
2018-06-10T01:44:24.493Z,17.23
2018-06-10T01:46:52.822Z,19.10
2018-06-10T01:49:21.177Z,16.70
2018-06-10T01:51:49.494Z,17.83
2018-06-10T01:54:18.935Z,18.30
2018-06-10T01:56:47.230Z,16.23
2018-06-10T01:59:15.563Z,19.67
2018-06-10T02:01:43.905Z,19.27
2018-06-10T02:04:13.207Z,19.67
2018-06-10T02:06:41.538Z,19.10
2018-06-10T02:09:09.841Z,18.47
2018-06-10T02:11:38.193Z,17.33
2018-06-10T02:14:06.540Z,17.03
2018-06-10T02:16:34.873Z,20.10
2018-06-10T02:19:03.150Z,16.57
2018-06-10T02:21:31.491Z,19.73
2018-06-10T02:23:59.847Z,22.17
2018-06-10T02:26:28.225Z,19.00
2018-06-10T02:28:57.509Z,19.70
2018-06-10T02:31:26.782Z,26.43
2018-06-10T02:33:55.101Z,23.27
2018-06-10T02:36:23.486Z,26.73
2018-06-10T02:38:52.867Z,25.73
2018-06-10T02:41:21.163Z,25.70
2018-06-10T02:43:49.451Z,25.80
2018-06-10T02:46:17.803Z,25.43
2018-06-10T02:48:46.135Z,26.53
2018-06-10T02:51:14.511Z,29.33
2018-06-10T02:53:42.843Z,27.93
2018-06-10T02:56:11.129Z,27.73
2018-06-10T02:58:39.469Z,28.97
2018-06-10T03:01:07.788Z,30.60
2018-06-10T03:03:36.120Z,33.67
2018-06-10T03:06:04.483Z,36.13
2018-06-10T03:08:32.923Z,40.83
2018-06-10T03:11:01.296Z,38.07
2018-06-10T03:13:29.604Z,40.03
2018-06-10T03:15:57.878Z,42.67
2018-06-10T03:18:27.257Z,42.10
2018-06-10T03:20:55.598Z,48.65
2018-06-10T03:23:23.895Z,42.63
2018-06-10T03:25:52.245Z,41.67
2018-06-10T03:28:20.573Z,38.63
2018-06-10T03:30:48.909Z,45.80
2018-06-10T03:33:17.225Z,49.67
2018-06-10T03:35:45.588Z,47.10
2018-06-10T03:38:13.897Z,50.27
2018-06-10T03:40:42.213Z,47.10
2018-06-10T03:43:10.561Z,51.73
2018-06-10T03:45:38.917Z,46.67
2018-06-10T03:48:07.222Z,45.00
2018-06-10T03:50:35.572Z,48.20
2018-06-10T03:53:03.937Z,44.27
2018-06-10T03:55:32.267Z,42.63
2018-06-10T03:58:00.848Z,44.37
2018-06-10T04:00:29.250Z,43.00
2018-06-10T04:02:57.578Z,45.33
2018-06-10T04:05:25.961Z,43.00
2018-06-10T04:07:55.329Z,43.90
2018-06-10T04:10:24.732Z,39.10
2018-06-10T04:12:53.085Z,36.83
2018-06-10T04:15:21.373Z,38.67
2018-06-10T04:17:49.767Z,36.30
2018-06-10T04:20:18.107Z,33.87
2018-06-10T04:22:46.479Z,34.73
2018-06-10T04:25:15.746Z,33.83
2018-06-10T04:27:44.101Z,34.57
2018-06-10T04:30:14.378Z,31.87
2018-06-10T04:32:42.723Z,31.47
2018-06-10T04:35:11.097Z,29.60
2018-06-10T04:37:39.458Z,26.97
2018-06-10T04:40:07.799Z,23.97
2018-06-10T04:42:37.135Z,23.10
2018-06-10T04:45:05.477Z,21.87
2018-06-10T04:47:33.848Z,20.33
2018-06-10T04:50:02.176Z,21.93
2018-06-10T04:52:30.557Z,20.20
2018-06-10T04:54:58.846Z,19.90
2018-06-10T04:57:28.181Z,19.57
2018-06-10T04:59:56.510Z,19.30
2018-06-10T05:02:24.841Z,21.63
2018-06-10T05:04:53.268Z,17.70
2018-06-10T05:07:21.562Z,21.30
2018-06-10T05:09:49.964Z,14.90
2018-06-10T05:12:18.331Z,14.47
2018-06-10T05:14:46.789Z,14.33
2018-06-10T05:17:15.109Z,14.80
2018-06-10T05:19:43.554Z,14.97
2018-06-10T05:22:11.873Z,15.10
2018-06-10T05:24:40.309Z,18.97
2018-06-10T05:27:08.722Z,15.50
2018-06-10T05:29:38.130Z,15.80
2018-06-10T05:32:06.616Z,14.80
2018-06-10T05:34:36.943Z,14.50
2018-06-10T05:37:06.321Z,16.27
2018-06-10T05:39:34.729Z,14.60
2018-06-10T05:42:03.084Z,16.37
2018-06-10T05:44:36.905Z,15.35
2018-06-10T05:47:08.328Z,13.13
2018-06-10T05:49:36.653Z,11.40
2018-06-10T05:52:05.016Z,14.07
2018-06-10T05:54:33.381Z,10.30
2018-06-10T05:57:01.819Z,14.77
2018-06-10T05:59:30.136Z,10.07
2018-06-10T06:01:59.523Z,23.13
2018-06-10T06:04:27.953Z,12.53
2018-06-10T06:06:56.280Z,15.47
2018-06-10T06:09:24.660Z,10.27
2018-06-10T06:11:52.985Z,10.67
2018-06-10T06:14:21.310Z,9.97
2018-06-10T06:16:50.645Z,9.57
2018-06-10T06:19:18.989Z,8.93
2018-06-10T06:21:47.372Z,8.70
2018-06-10T06:24:15.727Z,8.30
2018-06-10T06:26:44.210Z,8.10
2018-06-10T06:29:12.605Z,8.97
2018-06-10T06:31:41.069Z,6.83
2018-06-10T06:34:09.488Z,7.73
2018-06-10T06:36:37.852Z,7.47
2018-06-10T06:39:07.853Z,8.47
2018-06-10T06:41:36.248Z,9.60
2018-06-10T06:44:04.556Z,6.70
2018-06-10T06:46:32.955Z,7.97
2018-06-10T06:49:02.253Z,6.23
2018-06-10T06:51:30.585Z,6.43
2018-06-10T06:53:59.013Z,11.33
2018-06-10T06:56:27.318Z,6.60
2018-06-10T06:58:55.745Z,7.23
2018-06-10T07:01:25.130Z,5.90
2018-06-10T07:03:53.505Z,7.60
2018-06-10T07:06:21.872Z,14.40
2018-06-10T07:08:50.230Z,6.53
2018-06-10T07:11:18.609Z,10.93
2018-06-10T07:13:46.989Z,7.20
2018-06-10T07:16:15.366Z,6.73
2018-06-10T07:18:43.757Z,6.13
2018-06-10T07:21:12.141Z,4.73
2018-06-10T07:23:40.580Z,7.60
2018-06-10T07:26:08.905Z,7.40
2018-06-10T07:28:37.182Z,7.57
2018-06-10T07:31:05.489Z,5.87
2018-06-10T07:33:34.877Z,6.03
2018-06-10T07:36:03.232Z,6.60
2018-06-10T07:38:35.487Z,5.90
2018-06-10T07:41:03.781Z,9.77
2018-06-10T07:43:32.120Z,6.33
2018-06-10T07:46:00.457Z,7.30
2018-06-10T07:48:29.978Z,7.00
2018-06-10T07:50:58.361Z,8.73
2018-06-10T07:53:26.737Z,5.70
2018-06-10T07:55:55.064Z,5.47
2018-06-10T07:58:23.430Z,8.27
2018-06-10T08:00:51.721Z,8.37
2018-06-10T08:03:19.993Z,6.00
2018-06-10T08:05:48.473Z,5.93
2018-06-10T08:08:16.918Z,8.20
2018-06-10T08:10:45.278Z,6.90
2018-06-10T08:13:15.164Z,10.10
2018-06-10T08:15:43.501Z,7.77
2018-06-10T08:18:13.281Z,5.67
2018-06-10T08:20:41.635Z,6.93
2018-06-10T08:23:11.021Z,14.77
2018-06-10T08:25:40.063Z,7.40
2018-06-10T08:28:08.561Z,4.80
2018-06-10T08:30:37.010Z,9.40
2018-06-10T08:33:05.389Z,5.00
2018-06-10T08:35:33.717Z,4.53
2018-06-10T08:38:03.055Z,6.20
2018-06-10T08:40:31.450Z,5.20
2018-06-10T08:42:59.893Z,5.60
2018-06-10T08:45:28.272Z,5.80
2018-06-10T08:47:56.685Z,5.27
2018-06-10T08:50:25.106Z,6.70
2018-06-10T08:52:53.747Z,6.43
2018-06-10T08:55:22.446Z,6.10
2018-06-10T08:57:50.798Z,5.60
2018-06-10T09:00:19.281Z,7.60
2018-06-10T09:02:47.650Z,7.80
2018-06-10T09:05:16.007Z,7.40
2018-06-10T09:07:44.413Z,5.30
2018-06-10T09:10:12.772Z,5.43
2018-06-10T09:12:41.013Z,11.63
2018-06-10T09:15:09.292Z,5.17
2018-06-10T09:17:37.645Z,12.33
2018-06-10T09:20:06.028Z,6.40
2018-06-10T09:22:34.325Z,8.90
2018-06-10T09:25:02.784Z,10.20
2018-06-10T09:27:31.088Z,6.80
2018-06-10T09:29:59.533Z,9.27
2018-06-10T09:32:27.868Z,5.90
2018-06-10T09:34:56.187Z,5.73
2018-06-10T09:37:24.505Z,4.97
2018-06-10T09:39:52.873Z,5.43
2018-06-10T09:42:21.165Z,6.13
2018-06-10T09:44:50.473Z,6.33
2018-06-10T09:47:18.933Z,9.37
2018-06-10T09:49:48.211Z,6.47
2018-06-10T09:52:16.605Z,7.25
2018-06-10T09:54:44.965Z,9.33
2018-06-10T09:57:13.277Z,14.83
2018-06-10T09:59:42.531Z,10.20
2018-06-10T10:02:10.854Z,11.10
2018-06-10T10:04:39.200Z,15.07
2018-06-10T10:07:13.831Z,14.30
2018-06-10T10:09:46.725Z,15.00
2018-06-10T10:12:17.094Z,18.37
2018-06-10T10:14:45.489Z,17.13
2018-06-10T10:17:14.851Z,15.90
2018-06-10T10:19:43.206Z,17.00
2018-06-10T10:22:11.685Z,16.13
2018-06-10T10:24:40.072Z,17.03
2018-06-10T10:27:08.445Z,17.10
2018-06-10T10:29:36.887Z,17.67
2018-06-10T10:32:06.421Z,15.20
2018-06-10T10:34:34.733Z,16.70
2018-06-10T10:37:03.093Z,15.13
2018-06-10T10:39:31.469Z,14.93
2018-06-10T10:41:59.824Z,13.93
2018-06-10T10:44:28.209Z,14.67
2018-06-10T10:46:56.570Z,14.27
2018-06-10T10:49:24.881Z,13.53
2018-06-10T10:51:53.248Z,14.90
2018-06-10T10:54:21.687Z,14.50
2018-06-10T10:56:50.090Z,16.00
2018-06-10T10:59:18.497Z,12.20
2018-06-10T11:01:46.858Z,17.13
2018-06-10T11:04:15.179Z,12.77
2018-06-10T11:06:43.482Z,12.87
2018-06-10T11:09:11.877Z,12.07
2018-06-10T11:11:40.570Z,11.97
2018-06-10T11:14:08.924Z,11.70
2018-06-10T11:16:37.241Z,11.27
2018-06-10T11:19:05.664Z,11.17
2018-06-10T11:21:35.021Z,11.20
2018-06-10T11:24:03.423Z,12.13
2018-06-10T11:26:31.790Z,12.53
2018-06-10T11:29:00.237Z,12.10
2018-06-10T11:31:28.533Z,10.20
2018-06-10T11:33:56.789Z,8.90
2018-06-10T11:36:25.081Z,7.97
2018-06-10T11:38:53.344Z,8.30
2018-06-10T11:41:21.634Z,9.77
2018-06-10T11:43:49.883Z,9.77
2018-06-10T11:46:18.157Z,8.83
2018-06-10T11:48:46.443Z,9.73
2018-06-10T11:51:14.837Z,8.03
2018-06-10T11:53:43.117Z,9.10
2018-06-10T11:56:11.389Z,12.37
2018-06-10T11:58:39.750Z,9.47
2018-06-10T12:01:08.137Z,11.03
2018-06-10T12:03:36.383Z,9.20
2018-06-10T12:06:04.701Z,8.50
2018-06-10T12:08:32.954Z,9.03
2018-06-10T12:11:01.465Z,10.20
2018-06-10T12:13:29.725Z,15.30
2018-06-10T12:15:57.989Z,8.27
2018-06-10T12:18:26.272Z,7.50
2018-06-10T12:20:54.577Z,14.17
2018-06-10T12:23:23.980Z,10.57
2018-06-10T12:25:54.366Z,11.10
2018-06-10T12:28:22.686Z,10.13
2018-06-10T12:30:51.032Z,9.10
2018-06-10T12:33:20.487Z,10.20
2018-06-10T12:35:48.785Z,13.10
2018-06-10T12:38:17.094Z,11.93
2018-06-10T12:40:45.429Z,10.43
2018-06-10T12:43:15.841Z,11.50
2018-06-10T12:45:45.333Z,11.00
2018-06-10T12:48:13.707Z,10.67
2018-06-10T12:50:42.073Z,11.07
2018-06-10T12:53:10.446Z,11.97
2018-06-10T12:55:38.830Z,12.37
2018-06-10T12:58:07.204Z,13.40
2018-06-10T13:00:35.514Z,11.83
2018-06-10T13:03:04.038Z,10.73
2018-06-10T13:05:32.365Z,17.10
2018-06-10T13:08:00.705Z,11.33
2018-06-10T13:10:29.117Z,11.40
2018-06-10T13:12:57.639Z,12.60
2018-06-10T13:15:26.139Z,13.00
2018-06-10T13:17:54.453Z,12.53
2018-06-10T13:20:22.837Z,12.53
2018-06-10T13:22:51.190Z,11.57
2018-06-10T13:25:19.693Z,15.63
2018-06-10T13:27:48.052Z,13.27
2018-06-10T13:30:16.353Z,14.60
2018-06-10T13:32:45.713Z,11.90
2018-06-10T13:35:14.102Z,12.00
2018-06-10T13:37:42.415Z,11.03
2018-06-10T13:40:11.829Z,12.10
2018-06-10T13:42:40.359Z,11.53
2018-06-10T13:45:10.799Z,11.87
2018-06-10T13:47:42.577Z,11.70
2018-06-10T13:50:11.857Z,12.53
2018-06-10T13:52:42.157Z,10.93
2018-06-10T13:55:10.493Z,12.07
2018-06-10T13:57:39.870Z,11.43
2018-06-10T14:00:09.279Z,11.77
2018-06-10T14:02:39.588Z,13.83
2018-06-10T14:05:07.902Z,12.20
2018-06-10T14:07:36.244Z,11.43
2018-06-10T14:10:06.586Z,11.50
2018-06-10T14:12:34.850Z,12.13
2018-06-10T14:15:04.233Z,12.60
2018-06-10T14:17:32.549Z,11.17
2018-06-10T14:20:00.870Z,18.30
2018-06-10T14:22:29.141Z,10.53
2018-06-10T14:24:57.392Z,14.67
2018-06-10T14:27:25.691Z,10.70
2018-06-10T14:29:53.995Z,12.20
2018-06-10T14:32:22.453Z,11.03
2018-06-10T14:34:50.713Z,11.10
2018-06-10T14:37:19.001Z,11.47
2018-06-10T14:39:47.327Z,10.50
2018-06-10T14:42:15.686Z,10.93
2018-06-10T14:44:44.120Z,10.40
2018-06-10T14:47:12.550Z,9.70
2018-06-10T14:49:40.874Z,11.10
2018-06-10T14:52:09.517Z,13.10
2018-06-10T14:54:39.839Z,11.80
2018-06-10T14:57:09.234Z,11.63
2018-06-10T14:59:37.593Z,11.43
2018-06-10T15:02:06.022Z,19.30
2018-06-10T15:04:34.279Z,13.23
2018-06-10T15:07:02.575Z,12.50
2018-06-10T15:09:31.913Z,12.23
2018-06-10T15:12:00.201Z,16.30
2018-06-10T15:14:28.477Z,12.77
2018-06-10T15:16:57.830Z,12.27
2018-06-10T15:19:26.130Z,11.30
2018-06-10T15:21:54.458Z,14.93
2018-06-10T15:24:22.802Z,11.87
2018-06-10T15:26:51.075Z,11.77
2018-06-10T15:29:19.349Z,11.40
2018-06-10T15:31:47.645Z,12.60
2018-06-10T15:34:15.912Z,11.70
2018-06-10T15:36:44.214Z,12.70
2018-06-10T15:39:13.493Z,12.27
2018-06-10T15:41:41.792Z,14.83
2018-06-10T15:44:10.050Z,11.40
2018-06-10T15:46:38.431Z,11.63
2018-06-10T15:49:06.707Z,11.53
2018-06-10T15:51:35.129Z,14.00
2018-06-10T15:54:03.457Z,13.43
2018-06-10T15:56:31.963Z,15.20
2018-06-10T15:59:00.311Z,18.80
2018-06-10T16:01:28.602Z,22.20
2018-06-10T16:03:56.894Z,15.23
2018-06-10T16:06:25.176Z,15.50
2018-06-10T16:08:53.454Z,15.10
2018-06-10T16:11:21.713Z,14.93
2018-06-10T16:13:50.025Z,16.77
2018-06-10T16:16:18.722Z,18.47
2018-06-10T16:18:47.017Z,15.70
2018-06-10T16:21:15.332Z,22.83
2018-06-10T16:23:43.890Z,14.53
2018-06-10T16:26:12.164Z,15.13
2018-06-10T16:28:41.493Z,18.97
2018-06-10T16:31:09.827Z,17.43
2018-06-10T16:33:38.137Z,16.53
2018-06-10T16:36:06.490Z,16.20
2018-06-10T16:38:34.773Z,17.00
2018-06-10T16:41:03.097Z,18.93
2018-06-10T16:43:31.425Z,16.63
2018-06-10T16:45:59.697Z,20.57
2018-06-10T16:48:28.006Z,18.00
2018-06-10T16:50:56.470Z,14.70
2018-06-10T16:53:27.113Z,16.17
2018-06-10T16:55:55.405Z,16.47
2018-06-10T16:58:23.650Z,16.93
2018-06-10T17:00:51.938Z,16.97
2018-06-10T17:03:20.173Z,16.53
2018-06-10T17:05:48.457Z,15.60
2018-06-10T17:08:16.734Z,17.87
2018-06-10T17:10:45.061Z,16.60
2018-06-10T17:13:13.393Z,15.43
2018-06-10T17:15:41.687Z,16.17
2018-06-10T17:18:09.957Z,14.37
2018-06-10T17:20:38.230Z,15.30
2018-06-10T17:23:06.591Z,14.93
2018-06-10T17:25:34.893Z,14.63
2018-06-10T17:28:03.295Z,14.40
2018-06-10T17:30:31.663Z,13.00
2018-06-10T17:32:59.924Z,14.90
2018-06-10T17:35:28.230Z,16.40
2018-06-10T17:37:56.557Z,17.47
2018-06-10T17:40:24.833Z,15.37
2018-06-10T17:42:53.181Z,15.30
2018-06-10T17:45:21.486Z,17.47
2018-06-10T17:47:49.801Z,15.80
2018-06-10T17:50:18.078Z,13.93
2018-06-10T17:52:46.443Z,16.33
2018-06-10T17:55:14.922Z,14.40
2018-06-10T17:57:43.398Z,14.87
2018-06-10T18:00:12.149Z,16.03
2018-06-10T18:02:40.564Z,15.97
2018-06-10T18:05:08.937Z,16.03
2018-06-10T18:07:37.225Z,15.10
2018-06-10T18:10:05.609Z,14.80
2018-06-10T18:12:33.932Z,14.63
2018-06-10T18:15:02.225Z,17.10
2018-06-10T18:17:30.555Z,16.07
2018-06-10T18:19:58.916Z,23.10
2018-06-10T18:22:27.197Z,15.23
2018-06-10T18:24:55.561Z,16.50
2018-06-10T18:27:24.117Z,14.47
2018-06-10T18:29:52.422Z,14.50
2018-06-10T18:32:20.785Z,16.03
2018-06-10T18:34:49.082Z,16.37
2018-06-10T18:37:17.519Z,16.47
2018-06-10T18:39:45.921Z,18.30
2018-06-10T18:42:14.281Z,19.43
2018-06-10T18:44:42.574Z,16.10
2018-06-10T18:47:12.990Z,19.07
2018-06-10T18:49:41.293Z,17.73
2018-06-10T18:52:09.666Z,17.90
2018-06-10T18:54:37.936Z,15.97
2018-06-10T18:57:06.197Z,15.23
2018-06-10T18:59:34.669Z,17.63
2018-06-10T19:02:04.056Z,16.50
2018-06-10T19:04:32.398Z,19.40
2018-06-10T19:07:00.777Z,23.20
2018-06-10T19:09:31.073Z,22.10
2018-06-10T19:11:59.401Z,22.60
2018-06-10T19:14:27.816Z,24.57
2018-06-10T19:16:56.146Z,21.90
2018-06-10T19:19:24.593Z,22.43
2018-06-10T19:21:53.050Z,20.63
2018-06-10T19:24:21.338Z,20.67
2018-06-10T19:26:49.653Z,20.23
2018-06-10T19:29:18.035Z,20.37
2018-06-10T19:31:46.556Z,18.60
2018-06-10T19:34:14.882Z,29.27
2018-06-10T19:36:43.237Z,17.80
2018-06-10T19:39:11.616Z,18.10
2018-06-10T19:41:39.908Z,23.10
2018-06-10T19:44:08.252Z,16.60
2018-06-10T19:46:36.548Z,19.73
2018-06-10T19:49:05.872Z,21.07
2018-06-10T19:51:34.165Z,17.93
2018-06-10T19:54:02.481Z,23.10
2018-06-10T19:56:30.743Z,19.30
2018-06-10T19:58:59.090Z,23.90
2018-06-10T20:01:27.472Z,20.53
2018-06-10T20:03:55.913Z,21.87
2018-06-10T20:06:24.275Z,17.37
2018-06-10T20:08:52.677Z,19.30
2018-06-10T20:11:21.045Z,19.50
2018-06-10T20:13:49.432Z,21.53
2018-06-10T20:16:17.785Z,19.10
2018-06-10T20:18:46.094Z,16.20
2018-06-10T20:21:14.449Z,20.83
2018-06-10T20:23:42.844Z,16.03
2018-06-10T20:26:11.197Z,16.80
2018-06-10T20:28:39.529Z,15.27
2018-06-10T20:31:08.879Z,16.53
2018-06-10T20:33:37.169Z,15.70
2018-06-10T20:36:05.730Z,14.17
2018-06-10T20:38:34.015Z,17.73
2018-06-10T20:41:02.273Z,13.93
2018-06-10T20:43:30.592Z,23.47
2018-06-10T20:45:58.853Z,21.50
2018-06-10T20:48:27.368Z,15.00
2018-06-10T20:50:55.702Z,18.63
2018-06-10T20:53:23.976Z,15.80
2018-06-10T20:55:53.265Z,18.40
2018-06-10T20:58:21.550Z,17.10
2018-06-10T21:00:49.796Z,17.23
2018-06-10T21:03:18.085Z,18.80
2018-06-10T21:05:46.341Z,18.20
2018-06-10T21:08:14.735Z,15.83
2018-06-10T21:10:42.973Z,17.23
2018-06-10T21:13:11.311Z,15.90
2018-06-10T21:15:39.585Z,21.83
2018-06-10T21:18:07.957Z,16.00
2018-06-10T21:20:37.290Z,15.10
2018-06-10T21:23:05.650Z,14.03
2018-06-10T21:25:33.930Z,15.20
2018-06-10T21:28:02.321Z,15.63
2018-06-10T21:30:30.709Z,13.40
2018-06-10T21:32:59.041Z,16.07
2018-06-10T21:35:27.353Z,16.90
2018-06-10T21:37:55.702Z,19.90
2018-06-10T21:40:24.018Z,19.37
2018-06-10T21:42:52.357Z,14.83
2018-06-10T21:45:20.688Z,19.57
2018-06-10T21:47:48.934Z,14.80
2018-06-10T21:50:17.310Z,12.50
2018-06-10T21:52:45.669Z,13.90
2018-06-10T21:55:20.451Z,12.53
2018-06-10T21:57:51.843Z,13.20
2018-06-10T22:00:53.636Z,15.53
2018-06-10T22:06:36.983Z,12.60
2018-06-10T22:09:07.386Z,12.17
2018-06-10T22:13:06.821Z,13.93
2018-06-10T22:15:41.102Z,12.30
2018-06-10T22:18:24.659Z,13.40
2018-06-10T22:20:52.953Z,17.23
2018-06-10T22:23:22.293Z,11.80
2018-06-10T22:25:50.564Z,15.97
2018-06-10T22:28:18.874Z,15.33
2018-06-10T22:30:47.154Z,14.13
2018-06-10T22:33:15.453Z,15.33
2018-06-10T22:35:44.737Z,15.03
2018-06-10T22:38:13.049Z,14.40
2018-06-10T22:40:43.385Z,15.00
2018-06-10T22:43:11.701Z,17.47
2018-06-10T22:45:39.989Z,15.07
2018-06-10T22:48:08.309Z,17.53
2018-06-10T22:50:37.576Z,20.97
2018-06-10T22:53:18.914Z,18.83
2018-06-10T22:55:47.194Z,16.60
2018-06-10T22:58:16.529Z,22.83
2018-06-10T23:00:44.847Z,20.63
2018-06-10T23:03:14.205Z,17.33
2018-06-10T23:05:42.485Z,19.73
2018-06-10T23:08:11.007Z,16.13
2018-06-10T23:10:40.397Z,14.37
2018-06-10T23:13:08.689Z,19.60
2018-06-10T23:15:37.029Z,14.23
2018-06-10T23:18:05.305Z,19.80
2018-06-10T23:20:34.601Z,16.93
2018-06-10T23:23:03.023Z,15.00
2018-06-10T23:25:31.394Z,17.20
2018-06-10T23:27:59.680Z,23.53
2018-06-10T23:30:28.025Z,14.97
2018-06-10T23:32:56.320Z,13.27
2018-06-10T23:35:24.637Z,16.13
2018-06-10T23:37:52.913Z,13.37
2018-06-10T23:40:21.277Z,19.17
2018-06-10T23:42:49.643Z,15.93
2018-06-10T23:45:18.033Z,17.40
2018-06-10T23:47:46.325Z,16.10
2018-06-10T23:50:14.634Z,15.13
2018-06-10T23:52:42.969Z,19.60
2018-06-10T23:55:11.241Z,14.60
2018-06-10T23:57:39.514Z,16.87
